Página principal
METAR-TAF:

METAR-TAF

Aeroportos :

Madrid-Cuatro Vientos, Espanha

latitude: 40-23N, longitude: 003-47W, altura: 690 m

Observação actual do tempo

O boletim foi feito há 19 minutos, às 11:00 UTC
Vento 4 kt de este, variando entre norte e su-sudeste
Temperatura 27°C
Humidade 45%
Pressão 1022 hPa
Visibilidade 10 km ou mais
sem nuvens abaixo de 1500 metros e sem cumulonimbus

METAR: LEVS 191100Z 08004KT 350V160 CAVOK 27/14 Q1022

Hora: 13:19 (11:19 UTC)

Previsão

O boletim foi feito há 3 horas e 19 minutos, às 08:00 UTC
Previsão válida de 19 às 09 UTC a 19 às 18 UTC
Vento 5 kt com direcção variável
Visibilidade 10 km ou mais
Poucas nuvensa uma altura de 3500 ft
Probabilidade 30% :
Temporariamente
de 19 às 15 UTC a 19 às 18 UTC
Poucas nuvensa uma altura de 4500 ft, Cumulus congestus.

TAF: LEVS 190800Z 1909/1918 VRB05KT 9999 FEW035 PROB30 TEMPO 1915/1918 FEW045TCU

Observações e previsões do tempo de mais de 4000 aeroportos (mensagens METAR e TAF).

As estações disponíveis são os pontos amarelos e vermelhos sobre o mapa.

Mova o rato sobre o mapa para ver o nome da estação.

Depois clique no ponto para visualizar as observações e previsões meteorológicas.

Para alterar o mapa : clique nos botões verdes com uma cruz preta para aumentar o zoom; no botão verde com uma pitada de zoom; ou nas setas verdes para mapas adjacentes.


METAR-TAF: